N2125D KGHG-CYQY
Flight info
| Callsign | N2125D |
|---|---|
| Flight time | N/A |
| Altitude | 25000 |
| Route | COPLY Q475 BITRA |
| Aircraft | BE60/L-SBDFGRY/EB2 |
Departure
| Time | 2026-04-30 14:00 |
|---|---|
| Airport | Marshfield Municipal George Harlow Field (KGHG) |
Arrival
| Time | N/A |
|---|---|
| Airport | Sydney / J.A. Douglas McCurdy Airport (CYQY) |
| Time | Latitude | Longitude | Altitude | Speed | Heading |
|---|---|---|---|---|---|
| 2026-04-30 13:47 | 42.09673 | -70.67629 | 8 ft | 0 kts | 193° |
| 2026-04-30 13:58 | 42.09607 | -70.67631 | 7 ft | 12 kts | 218° |
| 2026-04-30 13:58 | 42.09522 | -70.67753 | 7 ft | 23 kts | 227° |
| 2026-04-30 13:59 | 42.09467 | -70.67824 | 8 ft | 0 kts | 221° |
| 2026-04-30 13:59 | 42.09453 | -70.67819 | 8 ft | 5 kts | 135° |
| 2026-04-30 13:59 | 42.09433 | -70.67788 | 8 ft | 4 kts | 130° |
| 2026-04-30 13:59 | 42.09441 | -70.67739 | 7 ft | 13 kts | 46° |
| 2026-04-30 14:00 | 42.09578 | -70.67555 | 6 ft | 46 kts | 46° |
| 2026-04-30 14:00 | 42.10499 | -70.66254 | 316 ft | 118 kts | 45° |
| 2026-04-30 14:00 | 42.11084 | -70.65439 | 758 ft | 123 kts | 45° |
| 2026-04-30 14:01 | 42.11760 | -70.64731 | 1209 ft | 126 kts | 13° |
| 2026-04-30 14:01 | 42.12625 | -70.64846 | 1654 ft | 127 kts | 354° |
| 2026-04-30 14:01 | 42.13514 | -70.64712 | 2095 ft | 130 kts | 8° |
| 2026-04-30 14:01 | 42.14405 | -70.64515 | 2536 ft | 133 kts | 8° |
| 2026-04-30 14:02 | 42.15337 | -70.64297 | 2958 ft | 136 kts | 8° |
| 2026-04-30 14:02 | 42.16288 | -70.64069 | 3311 ft | 148 kts | 9° |
| 2026-04-30 14:02 | 42.17327 | -70.63815 | 3711 ft | 155 kts | 9° |
| 2026-04-30 14:02 | 42.18406 | -70.63549 | 4172 ft | 159 kts | 9° |
| 2026-04-30 14:03 | 42.19507 | -70.63279 | 4652 ft | 163 kts | 10° |
| 2026-04-30 14:03 | 42.20634 | -70.63001 | 5124 ft | 165 kts | 11° |
| 2026-04-30 14:03 | 42.21753 | -70.62725 | 5718 ft | 161 kts | 10° |
| 2026-04-30 14:03 | 42.22825 | -70.62464 | 6335 ft | 156 kts | 10° |
| 2026-04-30 14:04 | 42.23899 | -70.62200 | 6842 ft | 157 kts | 10° |
| 2026-04-30 14:04 | 42.24976 | -70.61933 | 7366 ft | 157 kts | 9° |
| 2026-04-30 14:04 | 42.25692 | -70.61757 | 7723 ft | 158 kts | 9° |
| 2026-04-30 14:04 | 42.26775 | -70.61490 | 8237 ft | 159 kts | 8° |
| 2026-04-30 14:05 | 42.27872 | -70.61220 | 8767 ft | 160 kts | 8° |
| 2026-04-30 14:05 | 42.28973 | -70.60949 | 9306 ft | 162 kts | 7° |
| 2026-04-30 14:05 | 42.30082 | -70.60676 | 9808 ft | 163 kts | 7° |
| 2026-04-30 14:05 | 42.31198 | -70.60400 | 10281 ft | 163 kts | 7° |
| 2026-04-30 14:06 | 42.32319 | -70.60123 | 10794 ft | 164 kts | 6° |
| 2026-04-30 14:06 | 42.34577 | -70.59565 | 11771 ft | 166 kts | 6° |
| 2026-04-30 14:07 | 42.36857 | -70.59002 | 12732 ft | 167 kts | 6° |
| 2026-04-30 14:07 | 42.38005 | -70.58718 | 13192 ft | 168 kts | 6° |
| 2026-04-30 14:07 | 42.39160 | -70.58432 | 13672 ft | 169 kts | 6° |
| 2026-04-30 14:08 | 42.41495 | -70.57854 | 14502 ft | 172 kts | 6° |
| 2026-04-30 14:08 | 42.42674 | -70.57563 | 14922 ft | 173 kts | 6° |
| 2026-04-30 14:08 | 42.45063 | -70.56970 | 15755 ft | 176 kts | 6° |
| 2026-04-30 14:09 | 42.46273 | -70.56670 | 16177 ft | 177 kts | 5° |
| 2026-04-30 14:09 | 42.47474 | -70.56373 | 16601 ft | 178 kts | 5° |
| 2026-04-30 14:09 | 42.49785 | -70.55115 | 17457 ft | 185 kts | 46° |
| 2026-04-30 14:10 | 42.50475 | -70.53684 | 17880 ft | 185 kts | 70° |
| 2026-04-30 14:10 | 42.50985 | -70.52074 | 18279 ft | 187 kts | 69° |
| 2026-04-30 14:10 | 42.51511 | -70.50458 | 18665 ft | 188 kts | 69° |
| 2026-04-30 14:10 | 42.52037 | -70.48830 | 19049 ft | 189 kts | 70° |
| 2026-04-30 14:11 | 42.52562 | -70.47196 | 19438 ft | 190 kts | 70° |
| 2026-04-30 14:11 | 42.53095 | -70.45542 | 19828 ft | 192 kts | 70° |
| 2026-04-30 14:11 | 42.53629 | -70.43880 | 20214 ft | 193 kts | 70° |
| 2026-04-30 14:11 | 42.54168 | -70.42205 | 20608 ft | 195 kts | 70° |
| 2026-04-30 14:12 | 42.54711 | -70.40517 | 20994 ft | 196 kts | 70° |
| 2026-04-30 14:12 | 42.55256 | -70.38820 | 21377 ft | 197 kts | 70° |
| 2026-04-30 14:12 | 42.55806 | -70.37108 | 21756 ft | 198 kts | 70° |
| 2026-04-30 14:12 | 42.56358 | -70.35386 | 22121 ft | 200 kts | 70° |
| 2026-04-30 14:13 | 42.56915 | -70.33647 | 22486 ft | 201 kts | 71° |
| 2026-04-30 14:13 | 42.57475 | -70.31902 | 22846 ft | 203 kts | 71° |
| 2026-04-30 14:13 | 42.58037 | -70.30146 | 23203 ft | 204 kts | 71° |
| 2026-04-30 14:13 | 42.58603 | -70.28376 | 23524 ft | 205 kts | 71° |
| 2026-04-30 14:14 | 42.59175 | -70.26590 | 23819 ft | 206 kts | 71° |
| 2026-04-30 14:14 | 42.59747 | -70.24797 | 24108 ft | 207 kts | 71° |
| 2026-04-30 14:14 | 42.60322 | -70.22997 | 24391 ft | 209 kts | 70° |
| 2026-04-30 14:14 | 42.60900 | -70.21186 | 24678 ft | 209 kts | 71° |
| 2026-04-30 14:15 | 42.61476 | -70.19373 | 24834 ft | 219 kts | 71° |
| 2026-04-30 14:15 | 42.62099 | -70.17404 | 24849 ft | 235 kts | 70° |
| 2026-04-30 14:15 | 42.62765 | -70.15307 | 24850 ft | 249 kts | 70° |
| 2026-04-30 14:15 | 42.63469 | -70.13096 | 24850 ft | 261 kts | 70° |
| 2026-04-30 14:16 | 42.64204 | -70.10784 | 24849 ft | 271 kts | 70° |
| 2026-04-30 14:16 | 42.64961 | -70.08399 | 24846 ft | 279 kts | 70° |
| 2026-04-30 14:16 | 42.65736 | -70.05954 | 24847 ft | 285 kts | 69° |
| 2026-04-30 14:16 | 42.66526 | -70.03460 | 24846 ft | 290 kts | 69° |
| 2026-04-30 14:17 | 42.67328 | -70.00922 | 24845 ft | 294 kts | 70° |
| 2026-04-30 14:17 | 42.68137 | -69.98343 | 24845 ft | 298 kts | 70° |
| 2026-04-30 14:17 | 42.68948 | -69.95746 | 24845 ft | 300 kts | 70° |
| 2026-04-30 14:17 | 42.69769 | -69.93124 | 24846 ft | 302 kts | 70° |
| 2026-04-30 14:18 | 42.70596 | -69.90481 | 24845 ft | 304 kts | 70° |
| 2026-04-30 14:18 | 42.71424 | -69.87838 | 24843 ft | 304 kts | 70° |
| 2026-04-30 14:18 | 42.73056 | -69.82608 | 24838 ft | 296 kts | 70° |
| 2026-04-30 14:19 | 42.74646 | -69.77501 | 24829 ft | 291 kts | 70° |
| 2026-04-30 14:19 | 42.75431 | -69.74976 | 24828 ft | 289 kts | 70° |
| 2026-04-30 14:19 | 42.76214 | -69.72457 | 24830 ft | 288 kts | 70° |
| 2026-04-30 14:20 | 42.76994 | -69.69943 | 24829 ft | 288 kts | 70° |
| 2026-04-30 14:20 | 42.77770 | -69.67441 | 24829 ft | 287 kts | 70° |
| 2026-04-30 14:20 | 42.79314 | -69.62454 | 24830 ft | 284 kts | 70° |
| 2026-04-30 14:21 | 42.80069 | -69.60014 | 24830 ft | 283 kts | 71° |
| 2026-04-30 14:21 | 42.80828 | -69.57556 | 24830 ft | 281 kts | 71° |
| 2026-04-30 14:21 | 42.82337 | -69.52664 | 24833 ft | 279 kts | 71° |
| 2026-04-30 14:22 | 42.83087 | -69.50231 | 24830 ft | 278 kts | 71° |
| 2026-04-30 14:22 | 42.84580 | -69.45379 | 24834 ft | 277 kts | 71° |
| 2026-04-30 14:22 | 42.85321 | -69.42964 | 24836 ft | 276 kts | 71° |
| 2026-04-30 14:23 | 42.86801 | -69.38137 | 24836 ft | 277 kts | 71° |
| 2026-04-30 14:23 | 42.88289 | -69.33279 | 24837 ft | 278 kts | 71° |
| 2026-04-30 14:24 | 42.89780 | -69.28399 | 24841 ft | 279 kts | 71° |
| 2026-04-30 14:24 | 42.90526 | -69.25955 | 24838 ft | 279 kts | 71° |
| 2026-04-30 14:25 | 42.92015 | -69.21069 | 24838 ft | 279 kts | 71° |
| 2026-04-30 14:25 | 42.93501 | -69.16185 | 24842 ft | 279 kts | 71° |
| 2026-04-30 14:26 | 42.94985 | -69.11297 | 24841 ft | 279 kts | 71° |
| 2026-04-30 14:26 | 42.95727 | -69.08851 | 24841 ft | 279 kts | 71° |
| 2026-04-30 14:26 | 42.97202 | -69.03977 | 24842 ft | 278 kts | 71° |
| 2026-04-30 14:27 | 42.97943 | -69.01528 | 24842 ft | 278 kts | 71° |
| 2026-04-30 14:27 | 42.98679 | -68.99091 | 24842 ft | 278 kts | 71° |
| 2026-04-30 14:27 | 42.99416 | -68.96649 | 24844 ft | 277 kts | 71° |
| 2026-04-30 14:28 | 43.00872 | -68.91817 | 24841 ft | 277 kts | 71° |
| 2026-04-30 14:28 | 43.01606 | -68.89379 | 24842 ft | 277 kts | 71° |
| 2026-04-30 14:28 | 43.02339 | -68.86942 | 24843 ft | 277 kts | 71° |
| 2026-04-30 14:28 | 43.03068 | -68.84511 | 24840 ft | 277 kts | 71° |
| 2026-04-30 14:29 | 43.04528 | -68.79646 | 24848 ft | 276 kts | 71° |
| 2026-04-30 14:29 | 43.05747 | -68.75575 | 24849 ft | 276 kts | 71° |
| 2026-04-30 14:30 | 43.08161 | -68.67494 | 24848 ft | 276 kts | 71° |
| 2026-04-30 14:31 | 43.09606 | -68.62643 | 24847 ft | 275 kts | 72° |
| 2026-04-30 14:31 | 43.11048 | -68.57792 | 24852 ft | 275 kts | 71° |
| 2026-04-30 14:31 | 43.11767 | -68.55371 | 24853 ft | 275 kts | 72° |
| 2026-04-30 14:32 | 43.13206 | -68.50520 | 24853 ft | 275 kts | 72° |
| 2026-04-30 14:32 | 43.13925 | -68.48092 | 24859 ft | 275 kts | 72° |
| 2026-04-30 14:32 | 43.14642 | -68.45668 | 24858 ft | 275 kts | 72° |
| 2026-04-30 14:33 | 43.15349 | -68.43275 | 24856 ft | 275 kts | 72° |
| 2026-04-30 14:33 | 43.16779 | -68.38431 | 24859 ft | 274 kts | 72° |
| 2026-04-30 14:33 | 43.17494 | -68.36006 | 24860 ft | 274 kts | 72° |
| 2026-04-30 14:34 | 43.18206 | -68.33586 | 24860 ft | 274 kts | 72° |
| 2026-04-30 14:34 | 43.18920 | -68.31159 | 24862 ft | 275 kts | 72° |
| 2026-04-30 14:34 | 43.19634 | -68.28729 | 24863 ft | 275 kts | 72° |
| 2026-04-30 14:34 | 43.20350 | -68.26292 | 24862 ft | 276 kts | 72° |
| 2026-04-30 14:35 | 43.21553 | -68.22187 | 24875 ft | 279 kts | 72° |
| 2026-04-30 14:35 | 43.22515 | -68.18899 | 24876 ft | 281 kts | 71° |
| 2026-04-30 14:35 | 43.23245 | -68.16404 | 24879 ft | 283 kts | 72° |
| 2026-04-30 14:36 | 43.23978 | -68.13895 | 24876 ft | 283 kts | 72° |
| 2026-04-30 14:36 | 43.24709 | -68.11394 | 24879 ft | 282 kts | 72° |
| 2026-04-30 14:36 | 43.25434 | -68.08909 | 24879 ft | 281 kts | 72° |
| 2026-04-30 14:36 | 43.26157 | -68.06427 | 24876 ft | 280 kts | 72° |
| 2026-04-30 14:37 | 43.26878 | -68.03947 | 24877 ft | 279 kts | 72° |
| 2026-04-30 14:37 | 43.27596 | -68.01480 | 24878 ft | 278 kts | 72° |
| 2026-04-30 14:37 | 43.28312 | -67.99014 | 24879 ft | 278 kts | 72° |
| 2026-04-30 14:37 | 43.29025 | -67.96557 | 24879 ft | 277 kts | 72° |
| 2026-04-30 14:38 | 43.29731 | -67.94124 | 24878 ft | 277 kts | 72° |
| 2026-04-30 14:38 | 43.30442 | -67.91668 | 24877 ft | 277 kts | 72° |
| 2026-04-30 14:38 | 43.31152 | -67.89212 | 24886 ft | 277 kts | 72° |
| 2026-04-30 14:38 | 43.31861 | -67.86763 | 24883 ft | 277 kts | 72° |
| 2026-04-30 14:39 | 43.32572 | -67.84300 | 24889 ft | 277 kts | 72° |
| 2026-04-30 14:39 | 43.33281 | -67.81840 | 24889 ft | 277 kts | 72° |
| 2026-04-30 14:39 | 43.33989 | -67.79386 | 24888 ft | 277 kts | 72° |
| 2026-04-30 14:40 | 43.35403 | -67.74471 | 24888 ft | 277 kts | 72° |
| 2026-04-30 14:40 | 43.36112 | -67.72005 | 24893 ft | 277 kts | 72° |
| 2026-04-30 14:40 | 43.36820 | -67.69538 | 24895 ft | 277 kts | 72° |
| 2026-04-30 14:40 | 43.37525 | -67.67078 | 24891 ft | 277 kts | 72° |
| 2026-04-30 14:41 | 43.38231 | -67.64617 | 24899 ft | 277 kts | 72° |
| 2026-04-30 14:41 | 43.38935 | -67.62158 | 24900 ft | 277 kts | 72° |
| 2026-04-30 14:41 | 43.39639 | -67.59695 | 24897 ft | 277 kts | 72° |
| 2026-04-30 14:41 | 43.40343 | -67.57231 | 24900 ft | 277 kts | 72° |
| 2026-04-30 14:42 | 43.41047 | -67.54763 | 24901 ft | 277 kts | 72° |
| 2026-04-30 14:42 | 43.41750 | -67.52301 | 24901 ft | 277 kts | 72° |
| 2026-04-30 14:42 | 43.42443 | -67.49869 | 24904 ft | 277 kts | 72° |
| 2026-04-30 14:42 | 43.43144 | -67.47404 | 24903 ft | 277 kts | 72° |
| 2026-04-30 14:43 | 43.43845 | -67.44935 | 24907 ft | 277 kts | 72° |
| 2026-04-30 14:43 | 43.44546 | -67.42468 | 24907 ft | 277 kts | 72° |
| 2026-04-30 14:43 | 43.45256 | -67.39968 | 24905 ft | 277 kts | 72° |
| 2026-04-30 14:43 | 43.45943 | -67.37544 | 24911 ft | 277 kts | 72° |
| 2026-04-30 14:44 | 43.46652 | -67.35040 | 24909 ft | 277 kts | 72° |
| 2026-04-30 14:44 | 43.47343 | -67.32598 | 24910 ft | 277 kts | 71° |
| 2026-04-30 14:44 | 43.48040 | -67.30131 | 24911 ft | 277 kts | 72° |
| 2026-04-30 14:44 | 43.48737 | -67.27660 | 24915 ft | 277 kts | 72° |
| 2026-04-30 14:45 | 43.49435 | -67.25186 | 24915 ft | 277 kts | 72° |
| 2026-04-30 14:45 | 43.50132 | -67.22713 | 24913 ft | 277 kts | 72° |
| 2026-04-30 14:45 | 43.50829 | -67.20235 | 24916 ft | 277 kts | 72° |
| 2026-04-30 14:45 | 43.51525 | -67.17762 | 24917 ft | 277 kts | 71° |
| 2026-04-30 14:46 | 43.52220 | -67.15289 | 24919 ft | 277 kts | 72° |
| 2026-04-30 14:46 | 43.52916 | -67.12808 | 24922 ft | 277 kts | 72° |
| 2026-04-30 14:46 | 43.53611 | -67.10330 | 24920 ft | 277 kts | 72° |
| 2026-04-30 14:46 | 43.54080 | -67.08657 | 24922 ft | 278 kts | 72° |
| 2026-04-30 14:47 | 43.55000 | -67.05364 | 24924 ft | 278 kts | 71° |
| 2026-04-30 14:47 | 43.55694 | -67.02884 | 24922 ft | 278 kts | 72° |
| 2026-04-30 14:47 | 43.56390 | -67.00392 | 24924 ft | 278 kts | 72° |
| 2026-04-30 14:47 | 43.57176 | -66.97960 | 24924 ft | 278 kts | 68° |
| 2026-04-30 14:48 | 43.57981 | -66.95532 | 24927 ft | 278 kts | 68° |
| 2026-04-30 14:48 | 43.58773 | -66.93098 | 24929 ft | 278 kts | 68° |
| 2026-04-30 14:48 | 43.59569 | -66.90665 | 24927 ft | 278 kts | 68° |
| 2026-04-30 14:48 | 43.60370 | -66.88239 | 24931 ft | 278 kts | 68° |
| 2026-04-30 14:49 | 43.61170 | -66.85804 | 24931 ft | 278 kts | 68° |
| 2026-04-30 14:49 | 43.61966 | -66.83377 | 24930 ft | 278 kts | 68° |
| 2026-04-30 14:49 | 43.62762 | -66.80941 | 24933 ft | 278 kts | 68° |
| 2026-04-30 14:49 | 43.63560 | -66.78505 | 24931 ft | 278 kts | 68° |
| 2026-04-30 14:50 | 43.65151 | -66.73640 | 24936 ft | 278 kts | 68° |
| 2026-04-30 14:50 | 43.65948 | -66.71199 | 24938 ft | 278 kts | 68° |
| 2026-04-30 14:51 | 43.67538 | -66.66321 | 24936 ft | 278 kts | 69° |
| 2026-04-30 14:51 | 43.68331 | -66.63884 | 24937 ft | 278 kts | 69° |
| 2026-04-30 14:51 | 43.69916 | -66.59011 | 24946 ft | 278 kts | 69° |
| 2026-04-30 14:52 | 43.70707 | -66.56575 | 24943 ft | 277 kts | 69° |
| 2026-04-30 14:52 | 43.72282 | -66.51713 | 24956 ft | 277 kts | 69° |
| 2026-04-30 14:52 | 43.73070 | -66.49282 | 24965 ft | 277 kts | 69° |
| 2026-04-30 14:53 | 43.74376 | -66.45239 | 24964 ft | 277 kts | 68° |
| 2026-04-30 14:53 | 43.75432 | -66.41969 | 24980 ft | 280 kts | 69° |
| 2026-04-30 14:54 | 43.76749 | -66.37886 | 24976 ft | 279 kts | 69° |
| 2026-04-30 14:54 | 43.78322 | -66.33002 | 24977 ft | 277 kts | 69° |
| 2026-04-30 14:55 | 43.79881 | -66.28147 | 24985 ft | 276 kts | 69° |
| 2026-04-30 14:55 | 43.80662 | -66.25712 | 24990 ft | 277 kts | 69° |
| 2026-04-30 14:55 | 43.82486 | -66.20023 | 24989 ft | 279 kts | 69° |
| 2026-04-30 14:56 | 43.83797 | -66.15921 | 24986 ft | 277 kts | 69° |
| 2026-04-30 14:56 | 43.85352 | -66.11051 | 24982 ft | 276 kts | 69° |
| 2026-04-30 14:57 | 43.86125 | -66.08627 | 24976 ft | 276 kts | 69° |
| 2026-04-30 14:57 | 43.87672 | -66.03768 | 24983 ft | 276 kts | 69° |
| 2026-04-30 14:58 | 43.89212 | -65.98922 | 24975 ft | 276 kts | 69° |
| 2026-04-30 14:58 | 43.89994 | -65.96458 | 24974 ft | 275 kts | 69° |
| 2026-04-30 14:58 | 43.91529 | -65.91615 | 24985 ft | 274 kts | 69° |
| 2026-04-30 14:59 | 43.93057 | -65.86781 | 24985 ft | 274 kts | 69° |
| 2026-04-30 15:00 | 43.95347 | -65.79527 | 24992 ft | 273 kts | 69° |
| 2026-04-30 15:00 | 43.96869 | -65.74690 | 24999 ft | 273 kts | 69° |
| 2026-04-30 15:01 | 43.98386 | -65.69864 | 25003 ft | 273 kts | 69° |
| 2026-04-30 15:01 | 43.99146 | -65.67451 | 25005 ft | 273 kts | 69° |
| 2026-04-30 15:01 | 44.00646 | -65.62652 | 25012 ft | 273 kts | 70° |
| 2026-04-30 15:02 | 44.01412 | -65.60210 | 25011 ft | 273 kts | 70° |
| 2026-04-30 15:02 | 44.02158 | -65.57830 | 25016 ft | 273 kts | 70° |
| 2026-04-30 15:03 | 44.04420 | -65.50577 | 25015 ft | 273 kts | 70° |
| 2026-04-30 15:03 | 44.05927 | -65.45740 | 25017 ft | 273 kts | 69° |
| 2026-04-30 15:04 | 44.07426 | -65.40897 | 25031 ft | 272 kts | 70° |
| 2026-04-30 15:04 | 44.09681 | -65.33642 | 25032 ft | 272 kts | 69° |
| 2026-04-30 15:05 | 44.11928 | -65.26371 | 25036 ft | 273 kts | 69° |
| 2026-04-30 15:06 | 44.13424 | -65.21522 | 25045 ft | 273 kts | 69° |
| 2026-04-30 15:06 | 44.14917 | -65.16674 | 25048 ft | 273 kts | 69° |
| 2026-04-30 15:07 | 44.16404 | -65.11832 | 25051 ft | 273 kts | 69° |
| 2026-04-30 15:07 | 44.17898 | -65.06970 | 25052 ft | 273 kts | 69° |
| 2026-04-30 15:08 | 44.19385 | -65.02102 | 25055 ft | 273 kts | 69° |
| 2026-04-30 15:08 | 44.21623 | -64.94780 | 25056 ft | 274 kts | 69° |
| 2026-04-30 15:09 | 44.23111 | -64.89894 | 25056 ft | 274 kts | 69° |
| 2026-04-30 15:09 | 44.24601 | -64.84997 | 25058 ft | 274 kts | 69° |
| 2026-04-30 15:10 | 44.26087 | -64.80099 | 25057 ft | 275 kts | 69° |
| 2026-04-30 15:11 | 44.29062 | -64.70268 | 25055 ft | 275 kts | 69° |
| 2026-04-30 15:11 | 44.30545 | -64.65359 | 25055 ft | 276 kts | 69° |
| 2026-04-30 15:12 | 44.32779 | -64.57938 | 25054 ft | 276 kts | 69° |
| 2026-04-30 15:13 | 44.34262 | -64.52997 | 25054 ft | 276 kts | 68° |
| 2026-04-30 15:14 | 44.37225 | -64.43108 | 25054 ft | 276 kts | 68° |
| 2026-04-30 15:14 | 44.39445 | -64.35669 | 25050 ft | 276 kts | 68° |
| 2026-04-30 15:16 | 44.43123 | -64.23296 | 25052 ft | 276 kts | 68° |
| 2026-04-30 15:17 | 44.46062 | -64.13361 | 25057 ft | 276 kts | 68° |
| 2026-04-30 15:18 | 44.49730 | -64.00917 | 25061 ft | 276 kts | 68° |
| 2026-04-30 15:19 | 44.51948 | -63.93459 | 25066 ft | 276 kts | 68° |